createdAt,value
2023-05-02T00:02:17.656Z,6.95
2023-05-02T00:04:44.776Z,8.25
2023-05-02T00:07:11.948Z,4.63
2023-05-02T00:09:38.844Z,6.95
2023-05-02T00:12:05.868Z,8.15
2023-05-02T00:14:32.991Z,5.80
2023-05-02T00:16:59.794Z,6.65
2023-05-02T00:19:26.657Z,9.20
2023-05-02T00:21:53.377Z,7.97
2023-05-02T00:24:20.126Z,6.50
2023-05-02T00:26:46.922Z,7.60
2023-05-02T00:29:13.822Z,9.07
2023-05-02T00:31:41.326Z,10.18
2023-05-02T00:34:08.253Z,9.45
2023-05-02T00:36:35.018Z,8.73
2023-05-02T00:39:01.855Z,9.32
2023-05-02T00:41:28.630Z,12.88
2023-05-02T00:43:55.441Z,8.52
2023-05-02T00:46:22.318Z,8.60
2023-05-02T00:48:49.111Z,8.25
2023-05-02T00:51:15.788Z,8.68
2023-05-02T00:53:42.756Z,5.95
2023-05-02T00:56:12.329Z,7.60
2023-05-02T00:58:41.224Z,7.85
2023-05-02T01:01:20.134Z,9.93
2023-05-02T01:03:49.899Z,9.63
2023-05-02T01:06:40.466Z,10.68
2023-05-02T01:12:25.489Z,9.00
2023-05-02T01:14:55.264Z,9.43
2023-05-02T01:17:26.407Z,8.32
2023-05-02T01:19:58.620Z,10.15
2023-05-02T01:22:30.163Z,9.38
2023-05-02T01:25:21.382Z,9.73
2023-05-02T01:28:16.488Z,11.10
2023-05-02T01:30:46.662Z,10.90
2023-05-02T01:33:17.571Z,11.18
2023-05-02T01:35:46.480Z,9.68
2023-05-02T01:38:18.943Z,12.07
2023-05-02T01:40:47.055Z,12.07
2023-05-02T01:43:15.365Z,12.10
2023-05-02T01:45:45.397Z,10.98
2023-05-02T01:48:13.748Z,13.35
2023-05-02T01:50:43.977Z,11.35
2023-05-02T01:53:13.798Z,13.55
2023-05-02T01:55:44.604Z,14.07
2023-05-02T01:58:12.308Z,12.07
2023-05-02T02:00:39.836Z,14.10
2023-05-02T02:03:08.381Z,12.05
2023-05-02T02:05:37.067Z,13.07
2023-05-02T02:08:04.135Z,12.18
2023-05-02T02:10:40.383Z,12.07
2023-05-02T02:13:26.443Z,15.00
2023-05-02T02:16:01.135Z,14.02
2023-05-02T02:18:29.737Z,15.27
2023-05-02T02:20:59.297Z,17.95
2023-05-02T02:23:28.159Z,20.38
2023-05-02T02:25:56.477Z,23.15
2023-05-02T02:28:23.632Z,17.73
2023-05-02T02:30:50.787Z,18.48
2023-05-02T02:33:18.438Z,18.30
2023-05-02T02:35:52.744Z,20.98
2023-05-02T02:38:42.819Z,20.60
2023-05-02T02:41:15.415Z,18.98
2023-05-02T02:44:04.205Z,18.52
2023-05-02T02:46:51.291Z,20.95
2023-05-02T02:50:02.722Z,19.42
2023-05-02T02:53:09.335Z,21.88
2023-05-02T02:55:44.996Z,18.33
2023-05-02T02:58:14.590Z,18.95
2023-05-02T03:00:41.616Z,20.10
2023-05-02T03:03:09.685Z,18.85
2023-05-02T03:05:36.839Z,22.77
2023-05-02T03:08:03.722Z,21.00
2023-05-02T03:10:30.502Z,23.17
2023-05-02T03:12:57.310Z,21.02
2023-05-02T03:15:52.557Z,25.75
2023-05-02T03:18:19.544Z,23.17
2023-05-02T03:20:46.842Z,24.65
2023-05-02T03:23:13.617Z,22.35
2023-05-02T03:25:40.392Z,22.38
2023-05-02T03:28:07.115Z,21.45
2023-05-02T03:30:34.272Z,20.65
2023-05-02T03:33:01.838Z,18.63
2023-05-02T03:35:28.569Z,18.83
2023-05-02T03:37:55.233Z,18.52
2023-05-02T03:40:22.143Z,17.70
2023-05-02T03:42:48.934Z,12.90
2023-05-02T03:45:15.748Z,10.85
2023-05-02T03:47:42.526Z,18.13
2023-05-02T03:50:09.694Z,12.82
2023-05-02T03:52:36.524Z,14.23
2023-05-02T03:55:04.116Z,13.23
2023-05-02T03:57:30.903Z,15.50
2023-05-02T03:59:57.991Z,15.38
2023-05-02T04:02:25.462Z,10.85
2023-05-02T04:04:52.447Z,15.52
2023-05-02T04:07:19.744Z,13.63
2023-05-02T04:09:46.786Z,12.43
2023-05-02T04:12:15.812Z,10.52
2023-05-02T04:14:42.933Z,12.82
2023-05-02T04:17:09.804Z,17.80
2023-05-02T04:19:36.628Z,14.88
2023-05-02T04:22:03.653Z,10.65
2023-05-02T04:24:30.423Z,16.70
2023-05-02T04:26:57.134Z,15.43
2023-05-02T04:29:23.848Z,11.98
2023-05-02T04:31:51.700Z,18.77
2023-05-02T04:34:18.504Z,18.55
2023-05-02T04:36:45.882Z,10.88
2023-05-02T04:39:12.816Z,14.05
2023-05-02T04:41:39.576Z,24.05
2023-05-02T04:44:06.339Z,14.05
2023-05-02T04:46:33.101Z,17.30
2023-05-02T04:48:59.978Z,13.27
2023-05-02T04:51:27.970Z,13.32
2023-05-02T04:53:54.791Z,12.90
2023-05-02T04:56:21.987Z,18.25
2023-05-02T04:58:48.790Z,17.88
2023-05-02T05:01:15.545Z,13.23
2023-05-02T05:03:43.049Z,12.73
2023-05-02T05:06:09.902Z,16.58
2023-05-02T05:08:36.717Z,15.02
2023-05-02T05:11:05.203Z,12.60
2023-05-02T05:13:32.463Z,15.38
2023-05-02T05:15:59.256Z,19.88
2023-05-02T05:18:26.303Z,14.30
2023-05-02T05:20:53.082Z,16.10
2023-05-02T05:23:19.924Z,17.67
2023-05-02T05:25:46.747Z,10.02
2023-05-02T05:28:13.953Z,14.07
2023-05-02T05:30:40.664Z,13.73
2023-05-02T05:33:07.454Z,22.75
2023-05-02T05:35:34.331Z,19.15
2023-05-02T05:38:01.487Z,14.88
2023-05-02T05:40:28.282Z,12.15
2023-05-02T05:42:55.077Z,16.50
2023-05-02T05:45:22.642Z,14.10
2023-05-02T05:47:49.736Z,14.55
2023-05-02T05:50:16.686Z,11.23
2023-05-02T05:52:43.380Z,14.07
2023-05-02T05:55:10.413Z,16.00
2023-05-02T05:57:37.593Z,11.93
2023-05-02T06:00:04.861Z,12.38
2023-05-02T06:02:31.820Z,10.82
2023-05-02T06:04:58.765Z,15.07
2023-05-02T06:07:25.720Z,10.05
2023-05-02T06:09:52.664Z,11.73
2023-05-02T06:12:19.566Z,9.57
2023-05-02T06:14:46.339Z,12.88
2023-05-02T06:17:13.117Z,8.13
2023-05-02T06:19:39.948Z,7.47
2023-05-02T06:22:06.698Z,11.57
2023-05-02T06:24:33.505Z,11.60
2023-05-02T06:27:00.359Z,10.50
2023-05-02T06:29:27.137Z,12.00
2023-05-02T06:31:57.018Z,10.07
2023-05-02T06:34:23.943Z,14.40
2023-05-02T06:36:56.444Z,15.88
2023-05-02T06:39:23.276Z,7.75
2023-05-02T06:41:50.363Z,10.20
2023-05-02T06:44:17.398Z,11.15
2023-05-02T06:46:44.310Z,10.63
2023-05-02T06:49:11.304Z,9.20
2023-05-02T06:51:38.112Z,9.65
2023-05-02T06:54:04.828Z,13.43
2023-05-02T06:56:31.737Z,10.85
2023-05-02T06:58:58.590Z,9.60
2023-05-02T07:01:25.517Z,7.30
2023-05-02T07:03:52.752Z,11.23
2023-05-02T07:06:19.614Z,12.27
2023-05-02T07:08:46.326Z,9.18
2023-05-02T07:11:13.188Z,8.00
2023-05-02T07:13:39.939Z,7.40
2023-05-02T07:16:07.588Z,12.35
2023-05-02T07:18:34.472Z,9.07
2023-05-02T07:21:01.478Z,8.05
2023-05-02T07:23:28.386Z,5.97
2023-05-02T07:25:55.288Z,7.05
2023-05-02T07:28:22.018Z,8.50
2023-05-02T07:30:48.882Z,8.25
2023-05-02T07:33:15.836Z,9.70
2023-05-02T07:35:43.212Z,8.73
2023-05-02T07:38:10.154Z,9.52
2023-05-02T07:40:36.947Z,7.93
2023-05-02T07:43:03.723Z,10.50
2023-05-02T07:45:30.561Z,8.05
2023-05-02T07:47:57.425Z,7.72
2023-05-02T07:50:24.520Z,7.07
2023-05-02T07:52:51.539Z,12.20
2023-05-02T07:55:18.542Z,7.65
2023-05-02T07:57:45.425Z,7.93
2023-05-02T08:00:12.667Z,8.60
2023-05-02T08:02:39.522Z,10.13
2023-05-02T08:05:06.978Z,7.55
2023-05-02T08:07:35.889Z,11.05
2023-05-02T08:10:03.827Z,11.63
2023-05-02T08:12:30.974Z,9.82
2023-05-02T08:14:57.781Z,5.60
2023-05-02T08:17:29.299Z,8.63
2023-05-02T08:19:56.891Z,9.15
2023-05-02T08:22:23.754Z,7.25
2023-05-02T08:24:50.700Z,6.95
2023-05-02T08:27:17.416Z,6.82
2023-05-02T08:29:44.188Z,8.45
2023-05-02T08:32:11.013Z,6.97
2023-05-02T08:34:37.868Z,7.38
2023-05-02T08:37:12.064Z,7.47
2023-05-02T08:39:38.919Z,12.20
2023-05-02T08:42:07.702Z,6.70
2023-05-02T08:44:34.481Z,7.10
2023-05-02T08:47:03.135Z,8.98
2023-05-02T08:49:32.965Z,8.90
2023-05-02T08:52:00.658Z,6.72
2023-05-02T08:54:27.867Z,6.00
2023-05-02T08:56:54.925Z,6.53
2023-05-02T08:59:21.738Z,7.82
2023-05-02T09:01:58.621Z,10.65
2023-05-02T09:04:33.226Z,6.38
2023-05-02T09:06:59.893Z,7.53
2023-05-02T09:09:26.960Z,8.93
2023-05-02T09:11:53.819Z,7.18
2023-05-02T09:14:20.757Z,3.13
2023-05-02T09:16:47.878Z,4.80
2023-05-02T09:19:27.578Z,4.38
2023-05-02T09:22:01.423Z,7.13
2023-05-02T09:24:29.619Z,5.13
2023-05-02T09:27:03.453Z,5.88
2023-05-02T09:29:36.179Z,7.97
2023-05-02T09:32:04.343Z,6.28
2023-05-02T09:34:31.572Z,4.50
2023-05-02T09:36:58.732Z,4.78
2023-05-02T09:39:27.046Z,5.93
2023-05-02T09:41:54.308Z,3.95
2023-05-02T09:44:38.030Z,4.75
2023-05-02T09:47:06.839Z,7.00
2023-05-02T09:49:45.155Z,6.78
2023-05-02T09:52:17.344Z,4.95
2023-05-02T09:54:46.884Z,6.50
2023-05-02T09:57:14.131Z,7.07
2023-05-02T09:59:41.303Z,4.70
2023-05-02T10:02:11.439Z,3.78
2023-05-02T10:04:40.018Z,7.00
2023-05-02T10:07:10.420Z,7.70
2023-05-02T10:09:42.740Z,9.20
2023-05-02T10:12:09.906Z,8.18
2023-05-02T10:14:40.167Z,6.20
2023-05-02T10:17:21.560Z,9.20
2023-05-02T10:19:59.256Z,6.43
2023-05-02T10:24:53.936Z,6.60
2023-05-02T10:27:21.397Z,5.25
2023-05-02T10:29:51.440Z,6.05
2023-05-02T10:32:18.903Z,5.35
2023-05-02T10:34:47.551Z,6.75
2023-05-02T10:37:15.746Z,9.88
2023-05-02T10:39:42.548Z,5.90
2023-05-02T10:42:10.618Z,8.23
2023-05-02T10:44:39.768Z,7.38
2023-05-02T10:47:26.977Z,7.68
2023-05-02T10:49:59.995Z,7.50
2023-05-02T10:52:38.784Z,5.57
2023-05-02T10:55:25.469Z,8.43
2023-05-02T10:57:58.740Z,6.57
2023-05-02T11:00:27.298Z,8.70
2023-05-02T11:02:54.321Z,6.72
2023-05-02T11:05:23.281Z,5.65
2023-05-02T11:07:50.906Z,9.73
2023-05-02T11:10:17.706Z,5.85
2023-05-02T11:12:51.538Z,5.15
2023-05-02T11:15:38.421Z,8.02
2023-05-02T11:18:13.100Z,6.53
2023-05-02T11:20:41.794Z,6.72
2023-05-02T11:23:26.913Z,7.20
2023-05-02T11:26:00.398Z,5.88
2023-05-02T11:28:48.591Z,6.97
2023-05-02T11:31:27.727Z,4.03
2023-05-02T11:34:02.958Z,6.50
2023-05-02T11:36:30.877Z,6.95
2023-05-02T11:38:57.645Z,5.78
2023-05-02T11:41:39.251Z,6.65
2023-05-02T11:44:06.240Z,6.13
2023-05-02T11:46:33.738Z,6.03
2023-05-02T11:49:01.323Z,3.75
2023-05-02T11:51:28.096Z,5.43
2023-05-02T11:53:56.831Z,8.73
2023-05-02T11:56:24.817Z,5.53
2023-05-02T11:59:03.052Z,6.28
2023-05-02T12:01:30.281Z,4.55
2023-05-02T12:04:05.165Z,7.55
2023-05-02T12:06:32.264Z,5.00
2023-05-02T12:09:10.676Z,4.57
2023-05-02T12:11:38.549Z,5.25
2023-05-02T12:14:06.691Z,4.38
2023-05-02T12:16:33.998Z,7.90
2023-05-02T12:19:01.457Z,5.90
2023-05-02T12:21:30.155Z,5.15
2023-05-02T12:23:57.473Z,4.75
2023-05-02T12:26:29.414Z,4.75
2023-05-02T12:28:57.185Z,4.20
2023-05-02T12:31:24.251Z,6.72
2023-05-02T12:33:52.870Z,7.38
2023-05-02T12:36:19.912Z,6.40
2023-05-02T12:38:55.040Z,4.82
2023-05-02T12:41:32.834Z,4.85
2023-05-02T12:44:01.028Z,8.35
2023-05-02T12:46:31.793Z,4.15
2023-05-02T12:49:05.200Z,4.50
2023-05-02T12:51:33.142Z,3.70
2023-05-02T12:54:00.187Z,5.93
2023-05-02T12:56:32.845Z,5.07
2023-05-02T12:59:01.465Z,6.22
2023-05-02T13:01:28.944Z,4.85
2023-05-02T13:03:55.836Z,6.72
2023-05-02T13:06:22.699Z,5.70
2023-05-02T13:08:49.500Z,6.60
2023-05-02T13:11:16.257Z,6.32
2023-05-02T13:13:42.999Z,6.18
2023-05-02T13:16:09.821Z,6.13
2023-05-02T13:18:36.687Z,5.65
2023-05-02T13:21:04.972Z,4.95
2023-05-02T13:23:31.744Z,5.80
2023-05-02T13:25:58.988Z,7.05
2023-05-02T13:28:25.969Z,4.20
2023-05-02T13:30:52.892Z,5.65
2023-05-02T13:33:19.730Z,4.90
2023-05-02T13:35:46.607Z,5.70
2023-05-02T13:38:13.427Z,4.20
2023-05-02T13:40:40.095Z,5.88
2023-05-02T13:43:06.797Z,5.40
2023-05-02T13:45:33.847Z,5.78
2023-05-02T13:48:00.609Z,6.05
2023-05-02T13:50:27.404Z,8.82
2023-05-02T13:52:54.182Z,4.28
2023-05-02T13:55:21.093Z,5.20
2023-05-02T13:57:47.966Z,6.32
2023-05-02T14:00:14.961Z,8.55
2023-05-02T14:02:42.000Z,6.65
2023-05-02T14:05:09.117Z,4.80
2023-05-02T14:07:35.929Z,4.53
2023-05-02T14:10:02.877Z,6.47
2023-05-02T14:12:29.937Z,4.25
2023-05-02T14:14:56.683Z,7.63
2023-05-02T14:17:25.235Z,6.85
2023-05-02T14:19:52.125Z,6.60
2023-05-02T14:22:18.973Z,6.55
2023-05-02T14:24:45.822Z,5.50
2023-05-02T14:27:17.910Z,6.75
2023-05-02T14:29:45.939Z,5.45
2023-05-02T14:32:12.879Z,8.25
2023-05-02T14:34:40.507Z,6.35
2023-05-02T14:37:08.956Z,6.22
2023-05-02T14:39:36.914Z,6.43
2023-05-02T14:42:04.576Z,6.95
2023-05-02T14:44:32.014Z,6.15
2023-05-02T14:46:58.875Z,6.72
2023-05-02T14:49:25.792Z,5.22
2023-05-02T14:51:52.903Z,6.28
2023-05-02T14:54:20.458Z,6.28
2023-05-02T14:56:48.280Z,5.97
2023-05-02T14:59:15.204Z,6.57
2023-05-02T15:01:41.976Z,4.90
2023-05-02T15:04:09.080Z,5.70
2023-05-02T15:06:36.644Z,7.88
2023-05-02T15:09:04.801Z,4.57
2023-05-02T15:11:31.775Z,6.50
2023-05-02T15:13:59.557Z,6.85
2023-05-02T15:16:29.404Z,6.30
2023-05-02T15:18:56.232Z,5.32
2023-05-02T15:21:23.315Z,7.25
2023-05-02T15:23:50.142Z,7.28
2023-05-02T15:26:16.992Z,6.25
2023-05-02T15:28:43.816Z,5.63
2023-05-02T15:31:10.736Z,4.95
2023-05-02T15:33:37.719Z,5.93
2023-05-02T15:36:04.595Z,7.43
2023-05-02T15:38:31.307Z,6.28
2023-05-02T15:41:00.396Z,5.70
2023-05-02T15:43:27.639Z,5.55
2023-05-02T15:45:56.696Z,6.13
2023-05-02T15:48:26.711Z,6.65
2023-05-02T15:50:53.807Z,5.50
2023-05-02T15:53:23.985Z,5.53
2023-05-02T15:55:52.784Z,7.80
2023-05-02T15:58:19.816Z,6.40
2023-05-02T16:00:51.981Z,6.68
2023-05-02T16:03:19.102Z,5.32
2023-05-02T16:05:46.468Z,5.88
2023-05-02T16:08:13.931Z,3.30
2023-05-02T16:10:43.526Z,5.32
2023-05-02T16:13:10.650Z,4.90
2023-05-02T16:15:38.946Z,4.85
2023-05-02T16:18:06.018Z,6.97
2023-05-02T16:20:36.610Z,8.35
2023-05-02T16:23:04.201Z,5.93
2023-05-02T16:25:31.491Z,5.75
2023-05-02T16:27:58.329Z,6.03
2023-05-02T16:30:25.267Z,3.53
2023-05-02T16:32:52.040Z,4.20
2023-05-02T16:35:19.988Z,5.90
2023-05-02T16:37:47.575Z,9.93
2023-05-02T16:40:14.460Z,7.13
2023-05-02T16:42:41.505Z,5.15
2023-05-02T16:45:08.721Z,5.60
2023-05-02T16:47:36.261Z,6.38
2023-05-02T16:50:03.567Z,4.55
2023-05-02T16:52:30.969Z,6.65
2023-05-02T16:54:57.776Z,7.18
2023-05-02T16:57:24.545Z,5.97
2023-05-02T16:59:52.511Z,4.95
2023-05-02T17:02:22.772Z,5.47
2023-05-02T17:04:50.375Z,5.75
2023-05-02T17:07:17.618Z,5.80
2023-05-02T17:09:44.724Z,6.90
2023-05-02T17:12:12.497Z,4.95
2023-05-02T17:14:42.525Z,6.72
2023-05-02T17:17:10.034Z,7.55
2023-05-02T17:19:37.297Z,6.32
2023-05-02T17:22:05.152Z,7.32
2023-05-02T17:24:32.994Z,7.00
2023-05-02T17:27:00.908Z,7.00
2023-05-02T17:29:27.872Z,6.13
2023-05-02T17:31:57.340Z,7.35
2023-05-02T17:34:28.460Z,8.55
2023-05-02T17:36:55.948Z,6.80
2023-05-02T17:39:23.373Z,5.38
2023-05-02T17:41:50.409Z,6.55
2023-05-02T17:44:17.239Z,7.80
2023-05-02T17:46:44.026Z,10.02
2023-05-02T17:49:10.990Z,9.77
2023-05-02T17:51:37.837Z,9.88
2023-05-02T17:54:04.793Z,4.25
2023-05-02T17:56:34.468Z,6.72
2023-05-02T17:59:02.010Z,8.32
2023-05-02T18:01:28.776Z,7.00
2023-05-02T18:03:55.631Z,6.80
2023-05-02T18:06:22.748Z,9.80
2023-05-02T18:08:49.609Z,7.72
2023-05-02T18:11:18.306Z,5.60
2023-05-02T18:13:45.806Z,8.40
2023-05-02T18:16:14.123Z,7.22
2023-05-02T18:18:41.688Z,7.93
2023-05-02T18:21:12.028Z,3.63
2023-05-02T18:23:40.105Z,5.65
2023-05-02T18:26:13.186Z,4.18
2023-05-02T18:28:42.716Z,6.85
2023-05-02T18:31:17.544Z,8.45
2023-05-02T18:33:45.742Z,6.25
2023-05-02T18:36:13.585Z,4.18
2023-05-02T18:38:41.992Z,6.65
2023-05-02T18:41:09.400Z,7.15
2023-05-02T18:43:36.376Z,7.18
2023-05-02T18:46:03.313Z,9.82
2023-05-02T18:48:30.309Z,9.75
2023-05-02T18:50:57.632Z,6.35
2023-05-02T18:53:26.344Z,9.05
2023-05-02T18:55:56.438Z,8.02
2023-05-02T18:58:24.141Z,10.10
2023-05-02T19:00:51.670Z,6.75
2023-05-02T19:03:19.030Z,9.15
2023-05-02T19:05:45.918Z,7.95
2023-05-02T19:08:12.881Z,7.13
2023-05-02T19:10:40.124Z,8.48
2023-05-02T19:13:07.097Z,6.07
2023-05-02T19:15:34.195Z,9.20
2023-05-02T19:18:01.208Z,5.40
2023-05-02T19:20:29.438Z,6.15
2023-05-02T19:23:14.735Z,5.57
2023-05-02T19:25:44.099Z,7.68
2023-05-02T19:28:12.239Z,12.90
2023-05-02T19:30:43.042Z,7.32
2023-05-02T19:33:09.955Z,5.50
2023-05-02T19:35:36.870Z,5.75
2023-05-02T19:38:03.649Z,6.50
2023-05-02T19:40:31.034Z,7.93
2023-05-02T19:42:58.022Z,7.57
2023-05-02T19:45:24.972Z,7.53
2023-05-02T19:47:52.758Z,5.90
2023-05-02T19:50:19.824Z,6.70
2023-05-02T19:52:46.705Z,6.35
2023-05-02T19:55:13.796Z,7.38
2023-05-02T19:57:41.353Z,8.25
2023-05-02T20:00:08.710Z,12.45
2023-05-02T20:02:35.616Z,8.55
2023-05-02T20:05:02.369Z,4.30
2023-05-02T20:07:29.151Z,8.27
2023-05-02T20:09:56.312Z,8.77
2023-05-02T20:12:23.135Z,7.32
2023-05-02T20:14:49.977Z,5.82
2023-05-02T20:17:16.856Z,4.38
2023-05-02T20:19:45.311Z,6.20
2023-05-02T20:22:12.160Z,5.88
2023-05-02T20:24:39.006Z,8.43
2023-05-02T20:27:05.759Z,8.27
2023-05-02T20:29:32.622Z,7.43
2023-05-02T20:31:59.496Z,10.93
2023-05-02T20:34:26.791Z,8.85
2023-05-02T20:36:54.277Z,6.95
2023-05-02T20:39:22.116Z,4.90
2023-05-02T20:41:49.686Z,4.28
2023-05-02T20:44:17.599Z,5.22
2023-05-02T20:46:44.321Z,5.25
2023-05-02T20:49:11.205Z,4.38
2023-05-02T20:51:38.045Z,5.28
2023-05-02T20:54:05.171Z,5.25
2023-05-02T20:56:31.816Z,6.88
2023-05-02T20:58:58.631Z,5.72
2023-05-02T21:01:26.411Z,4.63
2023-05-02T21:03:53.306Z,6.00
2023-05-02T21:06:22.848Z,4.53
2023-05-02T21:08:49.844Z,8.68
2023-05-02T21:11:16.572Z,6.75
2023-05-02T21:13:43.808Z,11.65
2023-05-02T21:16:18.712Z,6.15
2023-05-02T21:18:48.836Z,7.75
2023-05-02T21:21:15.675Z,4.05
2023-05-02T21:23:42.355Z,5.47
2023-05-02T21:26:09.184Z,7.00
2023-05-02T21:28:37.986Z,4.22
2023-05-02T21:31:06.003Z,5.38
2023-05-02T21:33:32.768Z,4.95
2023-05-02T21:35:59.927Z,7.53
2023-05-02T21:38:26.971Z,10.13
2023-05-02T21:40:53.994Z,8.18
2023-05-02T21:43:20.922Z,5.78
2023-05-02T21:45:49.474Z,10.00
2023-05-02T21:48:17.109Z,3.80
2023-05-02T21:50:44.857Z,6.18
2023-05-02T21:53:13.692Z,5.75
2023-05-02T21:55:41.089Z,4.68
2023-05-02T21:58:09.527Z,6.90
2023-05-02T22:00:41.022Z,7.72
2023-05-02T22:03:11.565Z,7.47
2023-05-02T22:05:41.841Z,5.40
2023-05-02T22:08:13.375Z,4.32
2023-05-02T22:10:42.480Z,4.30
2023-05-02T22:13:14.248Z,8.10
2023-05-02T22:15:47.810Z,5.63
2023-05-02T22:18:15.827Z,4.85
2023-05-02T22:20:44.102Z,4.22
2023-05-02T22:23:11.596Z,5.40
2023-05-02T22:25:41.382Z,4.88
2023-05-02T22:28:11.357Z,5.82
2023-05-02T22:30:39.515Z,8.13
2023-05-02T22:33:07.405Z,4.50
2023-05-02T22:35:34.375Z,3.97
2023-05-02T22:38:02.294Z,7.10
2023-05-02T22:40:32.977Z,6.88
2023-05-02T22:43:00.895Z,9.13
2023-05-02T22:45:27.929Z,6.15
2023-05-02T22:47:55.791Z,7.88
2023-05-02T22:50:22.628Z,6.28
2023-05-02T22:52:49.506Z,5.53
2023-05-02T22:55:16.368Z,5.28
2023-05-02T22:57:43.350Z,5.72
2023-05-02T23:00:11.093Z,5.60
2023-05-02T23:02:38.277Z,6.30
2023-05-02T23:05:06.479Z,6.55
2023-05-02T23:07:33.358Z,6.03
2023-05-02T23:10:01.089Z,7.72
2023-05-02T23:12:29.001Z,5.35
2023-05-02T23:14:55.860Z,4.40
2023-05-02T23:17:23.230Z,9.10
2023-05-02T23:19:50.526Z,9.50
2023-05-02T23:22:17.446Z,5.93
2023-05-02T23:24:46.339Z,6.47
2023-05-02T23:27:13.170Z,7.15
2023-05-02T23:29:39.990Z,6.28
2023-05-02T23:32:08.064Z,4.72
2023-05-02T23:34:38.335Z,10.10
2023-05-02T23:37:06.948Z,8.35
2023-05-02T23:39:34.411Z,6.43
2023-05-02T23:42:03.526Z,7.07
2023-05-02T23:44:31.285Z,9.73
2023-05-02T23:47:01.458Z,6.53
2023-05-02T23:49:28.395Z,6.30
2023-05-02T23:51:55.139Z,7.50
2023-05-02T23:54:22.055Z,8.45
2023-05-02T23:56:48.811Z,5.32
2023-05-02T23:59:15.680Z,4.72
